sensor_id;sensor_type;location;lat;lon;timestamp;temperature;humidity
11423;DHT22;5768;51.476;7.210;2022-11-20T00:03:10;2.50;15.40
11423;DHT22;5768;51.476;7.210;2022-11-20T00:08:12;2.50;15.30
11423;DHT22;5768;51.476;7.210;2022-11-20T00:13:16;2.70;15.00
11423;DHT22;5768;51.476;7.210;2022-11-20T00:18:18;2.80;15.10
11423;DHT22;5768;51.476;7.210;2022-11-20T00:23:30;2.80;15.00
11423;DHT22;5768;51.476;7.210;2022-11-20T00:28:34;3.00;15.10
11423;DHT22;5768;51.476;7.210;2022-11-20T00:33:37;3.10;15.00
11423;DHT22;5768;51.476;7.210;2022-11-20T00:38:39;3.30;15.00
11423;DHT22;5768;51.476;7.210;2022-11-20T00:43:43;3.40;15.00
11423;DHT22;5768;51.476;7.210;2022-11-20T00:48:46;3.40;15.00
11423;DHT22;5768;51.476;7.210;2022-11-20T00:53:49;3.30;15.10
11423;DHT22;5768;51.476;7.210;2022-11-20T00:58:52;3.10;15.20
11423;DHT22;5768;51.476;7.210;2022-11-20T01:03:56;2.90;15.40
11423;DHT22;5768;51.476;7.210;2022-11-20T01:09:02;2.80;15.60
11423;DHT22;5768;51.476;7.210;2022-11-20T01:14:11;2.70;15.70
11423;DHT22;5768;51.476;7.210;2022-11-20T01:19:16;2.60;15.80
11423;DHT22;5768;51.476;7.210;2022-11-20T01:24:21;2.60;15.90
11423;DHT22;5768;51.476;7.210;2022-11-20T01:29:25;2.60;16.00
11423;DHT22;5768;51.476;7.210;2022-11-20T01:34:27;2.50;16.20
11423;DHT22;5768;51.476;7.210;2022-11-20T01:39:30;2.60;16.60
11423;DHT22;5768;51.476;7.210;2022-11-20T01:44:49;2.70;16.50
11423;DHT22;5768;51.476;7.210;2022-11-20T01:49:56;2.70;16.80
11423;DHT22;5768;51.476;7.210;2022-11-20T01:55:04;2.60;16.70
11423;DHT22;5768;51.476;7.210;2022-11-20T02:00:17;2.70;16.70
11423;DHT22;5768;51.476;7.210;2022-11-20T02:05:25;2.50;16.80
11423;DHT22;5768;51.476;7.210;2022-11-20T02:10:34;2.60;17.00
11423;DHT22;5768;51.476;7.210;2022-11-20T02:15:38;2.60;16.90
11423;DHT22;5768;51.476;7.210;2022-11-20T02:20:43;2.70;16.80
11423;DHT22;5768;51.476;7.210;2022-11-20T02:25:49;2.90;16.50
11423;DHT22;5768;51.476;7.210;2022-11-20T02:30:53;2.90;16.50
11423;DHT22;5768;51.476;7.210;2022-11-20T02:35:55;3.00;16.40
11423;DHT22;5768;51.476;7.210;2022-11-20T02:40:59;2.90;16.40
11423;DHT22;5768;51.476;7.210;2022-11-20T02:46:01;2.90;16.50
11423;DHT22;5768;51.476;7.210;2022-11-20T02:51:04;3.00;16.30
11423;DHT22;5768;51.476;7.210;2022-11-20T02:56:08;3.00;16.30
11423;DHT22;5768;51.476;7.210;2022-11-20T03:01:10;3.00;16.30
11423;DHT22;5768;51.476;7.210;2022-11-20T03:06:13;3.00;16.20
11423;DHT22;5768;51.476;7.210;2022-11-20T03:11:17;3.10;16.30
11423;DHT22;5768;51.476;7.210;2022-11-20T03:16:21;3.00;16.40
11423;DHT22;5768;51.476;7.210;2022-11-20T03:21:24;3.20;16.40
11423;DHT22;5768;51.476;7.210;2022-11-20T03:26:28;3.40;16.40
11423;DHT22;5768;51.476;7.210;2022-11-20T03:31:33;3.40;16.30
11423;DHT22;5768;51.476;7.210;2022-11-20T03:36:37;3.50;16.30
11423;DHT22;5768;51.476;7.210;2022-11-20T03:41:46;3.70;16.30
11423;DHT22;5768;51.476;7.210;2022-11-20T03:46:49;3.80;16.30
11423;DHT22;5768;51.476;7.210;2022-11-20T03:51:52;3.90;16.30
11423;DHT22;5768;51.476;7.210;2022-11-20T03:56:55;4.00;16.30
11423;DHT22;5768;51.476;7.210;2022-11-20T04:01:58;4.00;18.30
11423;DHT22;5768;51.476;7.210;2022-11-20T04:07:00;4.20;16.40
11423;DHT22;5768;51.476;7.210;2022-11-20T04:12:05;4.10;17.00
11423;DHT22;5768;51.476;7.210;2022-11-20T04:17:07;3.00;16.80
11423;DHT22;5768;51.476;7.210;2022-11-20T04:22:11;3.90;17.20
11423;DHT22;5768;51.476;7.210;2022-11-20T04:27:15;4.00;16.40
11423;DHT22;5768;51.476;7.210;2022-11-20T04:32:17;4.00;16.50
11423;DHT22;5768;51.476;7.210;2022-11-20T04:37:20;4.10;16.50
11423;DHT22;5768;51.476;7.210;2022-11-20T04:42:23;4.00;16.70
11423;DHT22;5768;51.476;7.210;2022-11-20T04:47:32;3.90;16.70
11423;DHT22;5768;51.476;7.210;2022-11-20T04:52:34;3.90;16.50
11423;DHT22;5768;51.476;7.210;2022-11-20T04:57:37;3.90;16.90
11423;DHT22;5768;51.476;7.210;2022-11-20T05:02:40;3.80;16.60
11423;DHT22;5768;51.476;7.210;2022-11-20T05:07:42;3.70;16.30
11423;DHT22;5768;51.476;7.210;2022-11-20T05:12:46;3.80;16.20
11423;DHT22;5768;51.476;7.210;2022-11-20T05:17:48;3.80;16.80
11423;DHT22;5768;51.476;7.210;2022-11-20T05:22:51;3.70;16.50
11423;DHT22;5768;51.476;7.210;2022-11-20T05:27:54;3.90;16.10
11423;DHT22;5768;51.476;7.210;2022-11-20T05:32:57;3.80;16.80
11423;DHT22;5768;51.476;7.210;2022-11-20T05:38:02;5.70;17.20
11423;DHT22;5768;51.476;7.210;2022-11-20T05:43:06;4.20;17.20
11423;DHT22;5768;51.476;7.210;2022-11-20T05:48:08;4.10;17.10
11423;DHT22;5768;51.476;7.210;2022-11-20T05:53:10;4.00;17.10
11423;DHT22;5768;51.476;7.210;2022-11-20T05:58:16;4.20;16.90
11423;DHT22;5768;51.476;7.210;2022-11-20T06:03:18;4.10;16.20
11423;DHT22;5768;51.476;7.210;2022-11-20T06:08:20;4.30;17.20
11423;DHT22;5768;51.476;7.210;2022-11-20T06:13:24;4.30;16.80
11423;DHT22;5768;51.476;7.210;2022-11-20T06:18:27;4.40;17.00
11423;DHT22;5768;51.476;7.210;2022-11-20T06:23:31;4.30;16.30
11423;DHT22;5768;51.476;7.210;2022-11-20T06:28:36;4.30;16.30
11423;DHT22;5768;51.476;7.210;2022-11-20T06:33:38;4.20;16.70
11423;DHT22;5768;51.476;7.210;2022-11-20T06:38:41;4.30;17.50
11423;DHT22;5768;51.476;7.210;2022-11-20T06:43:48;4.20;17.50
11423;DHT22;5768;51.476;7.210;2022-11-20T06:48:51;4.00;16.90
11423;DHT22;5768;51.476;7.210;2022-11-20T06:53:53;4.10;17.40
11423;DHT22;5768;51.476;7.210;2022-11-20T06:58:57;4.10;17.20
11423;DHT22;5768;51.476;7.210;2022-11-20T07:03:59;4.10;17.40
11423;DHT22;5768;51.476;7.210;2022-11-20T07:09:01;4.00;17.80
11423;DHT22;5768;51.476;7.210;2022-11-20T07:14:05;3.80;18.60
11423;DHT22;5768;51.476;7.210;2022-11-20T07:19:07;3.70;17.80
11423;DHT22;5768;51.476;7.210;2022-11-20T07:24:09;3.80;18.00
11423;DHT22;5768;51.476;7.210;2022-11-20T07:29:13;3.70;17.70
11423;DHT22;5768;51.476;7.210;2022-11-20T07:34:15;3.80;18.80
11423;DHT22;5768;51.476;7.210;2022-11-20T07:39:17;3.70;17.70
11423;DHT22;5768;51.476;7.210;2022-11-20T07:44:20;3.70;18.40
11423;DHT22;5768;51.476;7.210;2022-11-20T07:49:23;3.70;18.30
11423;DHT22;5768;51.476;7.210;2022-11-20T07:54:25;3.80;18.20
11423;DHT22;5768;51.476;7.210;2022-11-20T07:59:30;3.80;18.10
11423;DHT22;5768;51.476;7.210;2022-11-20T08:04:32;3.80;17.80
11423;DHT22;5768;51.476;7.210;2022-11-20T08:09:37;3.90;18.20
11423;DHT22;5768;51.476;7.210;2022-11-20T08:14:40;4.00;17.70
11423;DHT22;5768;51.476;7.210;2022-11-20T08:19:42;4.10;18.00
11423;DHT22;5768;51.476;7.210;2022-11-20T08:24:45;4.30;16.80
11423;DHT22;5768;51.476;7.210;2022-11-20T08:29:49;4.40;16.80
11423;DHT22;5768;51.476;7.210;2022-11-20T08:34:51;4.40;16.60
11423;DHT22;5768;51.476;7.210;2022-11-20T08:39:53;4.50;16.60
11423;DHT22;5768;51.476;7.210;2022-11-20T08:44:59;4.70;16.60
11423;DHT22;5768;51.476;7.210;2022-11-20T08:50:01;4.70;16.30
11423;DHT22;5768;51.476;7.210;2022-11-20T08:55:08;4.90;16.10
11423;DHT22;5768;51.476;7.210;2022-11-20T09:00:15;5.10;15.90
11423;DHT22;5768;51.476;7.210;2022-11-20T09:05:18;5.30;15.90
11423;DHT22;5768;51.476;7.210;2022-11-20T09:10:20;5.50;15.80
11423;DHT22;5768;51.476;7.210;2022-11-20T09:15:24;5.50;15.60
11423;DHT22;5768;51.476;7.210;2022-11-20T09:20:30;5.70;15.50
11423;DHT22;5768;51.476;7.210;2022-11-20T09:25:32;6.00;15.40
11423;DHT22;5768;51.476;7.210;2022-11-20T09:30:36;6.40;14.90
11423;DHT22;5768;51.476;7.210;2022-11-20T09:35:41;6.60;14.90
11423;DHT22;5768;51.476;7.210;2022-11-20T09:40:49;6.90;14.90
11423;DHT22;5768;51.476;7.210;2022-11-20T09:46:09;7.20;14.80
11423;DHT22;5768;51.476;7.210;2022-11-20T09:51:27;7.30;14.80
11423;DHT22;5768;51.476;7.210;2022-11-20T09:56:40;7.40;14.90
11423;DHT22;5768;51.476;7.210;2022-11-20T10:01:46;7.40;14.90
11423;DHT22;5768;51.476;7.210;2022-11-20T10:07:04;7.60;14.90
11423;DHT22;5768;51.476;7.210;2022-11-20T10:12:19;7.60;15.00
11423;DHT22;5768;51.476;7.210;2022-11-20T10:17:49;7.80;14.90
11423;DHT22;5768;51.476;7.210;2022-11-20T10:23:22;8.10;15.20
11423;DHT22;5768;51.476;7.210;2022-11-20T10:28:58;7.50;15.30
11423;DHT22;5768;51.476;7.210;2022-11-20T10:34:18;7.70;14.90
11423;DHT22;5768;51.476;7.210;2022-11-20T10:39:31;7.80;15.60
11423;DHT22;5768;51.476;7.210;2022-11-20T10:44:39;7.70;15.00
11423;DHT22;5768;51.476;7.210;2022-11-20T10:50:05;8.00;14.30
11423;DHT22;5768;51.476;7.210;2022-11-20T10:55:24;7.40;14.20
11423;DHT22;5768;51.476;7.210;2022-11-20T11:00:31;7.50;14.40
11423;DHT22;5768;51.476;7.210;2022-11-20T11:05:39;8.10;14.10
11423;DHT22;5768;51.476;7.210;2022-11-20T11:10:47;8.10;14.20
11423;DHT22;5768;51.476;7.210;2022-11-20T11:15:56;8.20;14.70
11423;DHT22;5768;51.476;7.210;2022-11-20T11:21:03;8.60;15.30
11423;DHT22;5768;51.476;7.210;2022-11-20T11:26:18;8.80;13.90
11423;DHT22;5768;51.476;7.210;2022-11-20T11:31:24;9.20;13.70
11423;DHT22;5768;51.476;7.210;2022-11-20T11:36:29;8.50;14.90
11423;DHT22;5768;51.476;7.210;2022-11-20T11:41:33;9.40;13.70
11423;DHT22;5768;51.476;7.210;2022-11-20T11:46:39;9.50;13.50
11423;DHT22;5768;51.476;7.210;2022-11-20T11:52:04;9.40;13.50
11423;DHT22;5768;51.476;7.210;2022-11-20T11:57:20;9.70;13.40
11423;DHT22;5768;51.476;7.210;2022-11-20T12:02:35;9.70;13.50
11423;DHT22;5768;51.476;7.210;2022-11-20T12:07:46;9.80;13.40
11423;DHT22;5768;51.476;7.210;2022-11-20T12:12:59;9.90;13.50
11423;DHT22;5768;51.476;7.210;2022-11-20T12:18:19;9.80;13.60
11423;DHT22;5768;51.476;7.210;2022-11-20T12:23:28;9.00;14.40
11423;DHT22;5768;51.476;7.210;2022-11-20T12:28:56;9.30;14.10
11423;DHT22;5768;51.476;7.210;2022-11-20T12:34:37;9.30;14.10
11423;DHT22;5768;51.476;7.210;2022-11-20T12:39:50;9.20;14.70
11423;DHT22;5768;51.476;7.210;2022-11-20T12:45:14;9.00;13.70
11423;DHT22;5768;51.476;7.210;2022-11-20T12:50:35;9.10;13.70
11423;DHT22;5768;51.476;7.210;2022-11-20T12:55:55;9.00;13.80
11423;DHT22;5768;51.476;7.210;2022-11-20T13:01:12;9.00;13.90
11423;DHT22;5768;51.476;7.210;2022-11-20T13:06:43;8.90;13.90
11423;DHT22;5768;51.476;7.210;2022-11-20T13:11:50;9.10;13.90
11423;DHT22;5768;51.476;7.210;2022-11-20T13:17:05;9.10;13.80
11423;DHT22;5768;51.476;7.210;2022-11-20T13:22:24;9.00;13.80
11423;DHT22;5768;51.476;7.210;2022-11-20T13:27:28;9.00;13.90
11423;DHT22;5768;51.476;7.210;2022-11-20T13:32:32;9.10;14.20
11423;DHT22;5768;51.476;7.210;2022-11-20T13:37:36;9.20;13.50
11423;DHT22;5768;51.476;7.210;2022-11-20T13:42:44;8.90;13.90
11423;DHT22;5768;51.476;7.210;2022-11-20T13:47:49;8.80;13.90
11423;DHT22;5768;51.476;7.210;2022-11-20T13:52:59;8.70;14.00
11423;DHT22;5768;51.476;7.210;2022-11-20T13:58:36;8.70;13.50
11423;DHT22;5768;51.476;7.210;2022-11-20T14:03:47;8.70;13.60
11423;DHT22;5768;51.476;7.210;2022-11-20T14:08:50;8.80;13.60
11423;DHT22;5768;51.476;7.210;2022-11-20T14:14:01;8.80;13.70
11423;DHT22;5768;51.476;7.210;2022-11-20T14:19:25;8.70;13.80
11423;DHT22;5768;51.476;7.210;2022-11-20T14:24:29;8.60;13.90
11423;DHT22;5768;51.476;7.210;2022-11-20T14:29:36;8.70;14.00
11423;DHT22;5768;51.476;7.210;2022-11-20T14:34:43;8.70;13.90
11423;DHT22;5768;51.476;7.210;2022-11-20T14:39:52;8.80;14.00
11423;DHT22;5768;51.476;7.210;2022-11-20T14:44:58;8.80;14.70
11423;DHT22;5768;51.476;7.210;2022-11-20T14:50:02;8.60;14.80
11423;DHT22;5768;51.476;7.210;2022-11-20T14:55:14;8.50;14.90
11423;DHT22;5768;51.476;7.210;2022-11-20T15:00:29;8.50;15.80
11423;DHT22;5768;51.476;7.210;2022-11-20T15:05:45;8.40;15.70
11423;DHT22;5768;51.476;7.210;2022-11-20T15:10:50;8.30;16.00
11423;DHT22;5768;51.476;7.210;2022-11-20T15:15:56;8.30;16.30
11423;DHT22;5768;51.476;7.210;2022-11-20T15:21:02;8.30;16.20
11423;DHT22;5768;51.476;7.210;2022-11-20T15:26:09;8.30;16.20
11423;DHT22;5768;51.476;7.210;2022-11-20T15:31:16;8.00;16.40
11423;DHT22;5768;51.476;7.210;2022-11-20T15:36:22;8.00;15.70
11423;DHT22;5768;51.476;7.210;2022-11-20T15:41:24;7.90;16.00
11423;DHT22;5768;51.476;7.210;2022-11-20T15:46:36;8.10;16.50
11423;DHT22;5768;51.476;7.210;2022-11-20T16:02:35;7.90;16.80
11423;DHT22;5768;51.476;7.210;2022-11-20T16:07:38;7.80;16.70
11423;DHT22;5768;51.476;7.210;2022-11-20T16:12:40;7.80;16.90
11423;DHT22;5768;51.476;7.210;2022-11-20T16:18:01;7.70;17.00
11423;DHT22;5768;51.476;7.210;2022-11-20T16:23:03;7.70;17.00
11423;DHT22;5768;51.476;7.210;2022-11-20T16:28:06;7.80;16.90
11423;DHT22;5768;51.476;7.210;2022-11-20T16:33:12;7.70;16.50
11423;DHT22;5768;51.476;7.210;2022-11-20T16:38:17;7.70;16.70
11423;DHT22;5768;51.476;7.210;2022-11-20T16:43:19;7.50;17.00
11423;DHT22;5768;51.476;7.210;2022-11-20T16:48:23;7.60;17.70
11423;DHT22;5768;51.476;7.210;2022-11-20T16:53:25;7.70;18.10
11423;DHT22;5768;51.476;7.210;2022-11-20T16:58:27;7.70;18.00
11423;DHT22;5768;51.476;7.210;2022-11-20T17:03:31;7.80;18.20
11423;DHT22;5768;51.476;7.210;2022-11-20T17:08:33;7.80;18.40
11423;DHT22;5768;51.476;7.210;2022-11-20T17:13:35;7.80;18.60
11423;DHT22;5768;51.476;7.210;2022-11-20T17:18:39;7.90;18.70
11423;DHT22;5768;51.476;7.210;2022-11-20T17:23:43;8.00;18.90
11423;DHT22;5768;51.476;7.210;2022-11-20T17:28:52;8.10;18.90
11423;DHT22;5768;51.476;7.210;2022-11-20T17:33:56;8.10;18.20
11423;DHT22;5768;51.476;7.210;2022-11-20T17:39:00;8.10;18.30
11423;DHT22;5768;51.476;7.210;2022-11-20T17:44:02;8.20;18.20
11423;DHT22;5768;51.476;7.210;2022-11-20T17:49:06;8.20;18.30
11423;DHT22;5768;51.476;7.210;2022-11-20T17:54:09;8.30;18.20
11423;DHT22;5768;51.476;7.210;2022-11-20T17:59:14;8.30;18.30
11423;DHT22;5768;51.476;7.210;2022-11-20T18:04:19;8.30;18.30
11423;DHT22;5768;51.476;7.210;2022-11-20T18:09:21;8.30;18.40
11423;DHT22;5768;51.476;7.210;2022-11-20T18:14:24;8.30;18.30
11423;DHT22;5768;51.476;7.210;2022-11-20T18:19:38;8.20;18.40
11423;DHT22;5768;51.476;7.210;2022-11-20T18:24:42;8.20;18.40
11423;DHT22;5768;51.476;7.210;2022-11-20T18:29:46;8.30;18.40
11423;DHT22;5768;51.476;7.210;2022-11-20T18:34:55;8.30;18.40
11423;DHT22;5768;51.476;7.210;2022-11-20T18:39:57;8.30;18.60
11423;DHT22;5768;51.476;7.210;2022-11-20T18:44:59;8.30;18.70
11423;DHT22;5768;51.476;7.210;2022-11-20T18:50:07;8.30;19.30
11423;DHT22;5768;51.476;7.210;2022-11-20T18:55:10;8.00;19.60
11423;DHT22;5768;51.476;7.210;2022-11-20T19:00:13;7.70;20.40
11423;DHT22;5768;51.476;7.210;2022-11-20T19:05:16;8.00;20.00
11423;DHT22;5768;51.476;7.210;2022-11-20T19:10:19;8.10;19.50
11423;DHT22;5768;51.476;7.210;2022-11-20T19:15:23;8.30;19.60
11423;DHT22;5768;51.476;7.210;2022-11-20T19:20:28;8.50;19.90
11423;DHT22;5768;51.476;7.210;2022-11-20T19:25:33;8.50;19.90
11423;DHT22;5768;51.476;7.210;2022-11-20T19:30:35;8.60;19.70
11423;DHT22;5768;51.476;7.210;2022-11-20T19:35:39;8.60;19.20
11423;DHT22;5768;51.476;7.210;2022-11-20T19:40:42;8.70;19.30
11423;DHT22;5768;51.476;7.210;2022-11-20T19:45:45;8.70;19.40
11423;DHT22;5768;51.476;7.210;2022-11-20T19:50:48;8.80;19.50
11423;DHT22;5768;51.476;7.210;2022-11-20T19:55:55;8.90;19.50
11423;DHT22;5768;51.476;7.210;2022-11-20T20:01:05;9.00;19.50
11423;DHT22;5768;51.476;7.210;2022-11-20T20:06:11;9.00;19.80
11423;DHT22;5768;51.476;7.210;2022-11-20T20:11:16;8.90;20.00
11423;DHT22;5768;51.476;7.210;2022-11-20T20:16:22;8.70;20.70
11423;DHT22;5768;51.476;7.210;2022-11-20T20:21:28;8.70;21.10
11423;DHT22;5768;51.476;7.210;2022-11-20T20:26:31;8.70;21.70
11423;DHT22;5768;51.476;7.210;2022-11-20T20:31:34;8.40;22.40
11423;DHT22;5768;51.476;7.210;2022-11-20T20:36:38;8.30;23.10
11423;DHT22;5768;51.476;7.210;2022-11-20T20:41:40;8.30;23.60
11423;DHT22;5768;51.476;7.210;2022-11-20T20:46:42;8.30;24.50
11423;DHT22;5768;51.476;7.210;2022-11-20T20:51:46;8.30;24.40
11423;DHT22;5768;51.476;7.210;2022-11-20T20:56:50;8.00;24.80
11423;DHT22;5768;51.476;7.210;2022-11-20T21:01:52;8.00;24.30
11423;DHT22;5768;51.476;7.210;2022-11-20T21:06:55;7.80;25.50
11423;DHT22;5768;51.476;7.210;2022-11-20T21:11:58;7.70;25.80
11423;DHT22;5768;51.476;7.210;2022-11-20T21:17:01;7.40;25.80
11423;DHT22;5768;51.476;7.210;2022-11-20T21:22:05;7.30;26.80
11423;DHT22;5768;51.476;7.210;2022-11-20T21:27:07;7.20;27.40
11423;DHT22;5768;51.476;7.210;2022-11-20T21:32:09;6.90;27.00
11423;DHT22;5768;51.476;7.210;2022-11-20T21:37:13;6.60;26.60
11423;DHT22;5768;51.476;7.210;2022-11-20T21:42:16;6.60;25.80
11423;DHT22;5768;51.476;7.210;2022-11-20T21:47:18;6.40;25.60
11423;DHT22;5768;51.476;7.210;2022-11-20T21:52:22;6.40;25.60
11423;DHT22;5768;51.476;7.210;2022-11-20T21:57:24;6.20;25.70
11423;DHT22;5768;51.476;7.210;2022-11-20T22:02:26;6.10;25.80
11423;DHT22;5768;51.476;7.210;2022-11-20T22:07:29;6.30;26.00
11423;DHT22;5768;51.476;7.210;2022-11-20T22:12:32;5.90;26.70
11423;DHT22;5768;51.476;7.210;2022-11-20T22:17:34;5.90;26.40
11423;DHT22;5768;51.476;7.210;2022-11-20T22:22:55;5.90;26.30
11423;DHT22;5768;51.476;7.210;2022-11-20T22:27:57;5.90;25.60
11423;DHT22;5768;51.476;7.210;2022-11-20T22:33:00;6.00;25.50
11423;DHT22;5768;51.476;7.210;2022-11-20T22:38:04;5.80;24.60
11423;DHT22;5768;51.476;7.210;2022-11-20T22:43:07;5.60;24.50
11423;DHT22;5768;51.476;7.210;2022-11-20T22:48:09;5.80;24.70
11423;DHT22;5768;51.476;7.210;2022-11-20T22:53:12;5.60;24.00
11423;DHT22;5768;51.476;7.210;2022-11-20T22:58:14;5.90;24.90
11423;DHT22;5768;51.476;7.210;2022-11-20T23:03:17;5.50;23.30
11423;DHT22;5768;51.476;7.210;2022-11-20T23:08:21;5.40;23.40
11423;DHT22;5768;51.476;7.210;2022-11-20T23:13:23;5.50;23.30
11423;DHT22;5768;51.476;7.210;2022-11-20T23:18:29;5.50;22.90
11423;DHT22;5768;51.476;7.210;2022-11-20T23:23:33;5.50;22.90
11423;DHT22;5768;51.476;7.210;2022-11-20T23:28:35;5.70;22.40
11423;DHT22;5768;51.476;7.210;2022-11-20T23:33:39;5.90;22.00
11423;DHT22;5768;51.476;7.210;2022-11-20T23:38:44;5.80;21.50
11423;DHT22;5768;51.476;7.210;2022-11-20T23:43:46;5.70;21.50
11423;DHT22;5768;51.476;7.210;2022-11-20T23:48:48;5.60;21.90
11423;DHT22;5768;51.476;7.210;2022-11-20T23:53:52;4.40;22.90
11423;DHT22;5768;51.476;7.210;2022-11-20T23:58:54;5.60;22.60
